Monson, ME

1:57 AM EDT on August 05, 2015 (GMT -0400)
Abbot/Blanchard | | Change Station
CLOSE
Current Station
Personal Weather Station
Location: Abbot, ME
Elevation: 735 ft
Nearby Weather Stations

Elev 735 ft 45.22 °N, 69.55 °W | Updated 24 seconds ago

Mostly Cloudy
Mostly Cloudy
55.4 °F
Feels Like 55.4 °F
N
0.0
Wind Variable Wind from ENE
Gusts 0.0 mph

Today
High -- | Low -- °F
--% Chance of Precip.
Yesterday
High -- | Low -- °F
Precip. -- in
5:26 AM 8:00 PM
Waning Gibbous, 70% visible
Pressure 29.84 in
Visibility 0.5 miles
Clouds
Dew Point 55 °F
Humidity 100%
Rainfall 0.00 in
Snow Depth Not available.
UV Not available.
Pollen 4.20 out of 12
Air Quality Not available.
Flu Activity Not available.
METAR KMLT 050553Z AUTO 00000KT 1/2SM FG VV001 14/14 A2983 RMK AO2 SLP104 T01440139 10178 20139 50002

More Conditions Fewer Conditions

Pressure 29.84 in
Visibility 0.5 miles
Clouds
Dew Point 55 °F
Humidity 100%
Rainfall 0.00 in
Snow Depth Not available.
UV Not available.
Pollen 4.20 out of 12
Air Quality Not available.
Flu Activity Not available.
METAR KMLT 050553Z AUTO 00000KT 1/2SM FG VV001 14/14 A2983 RMK AO2 SLP104 T01440139 10178 20139 50002

More Conditions Fewer Conditions

10-Day Weather Forecast

×

Almanac

Astronomy

Aug. 05, 2015 Rise Set
Actual Time
Civil Twilight
Nautical Twilight
Astronomical Twilight
Moon
Length of Visible Light
Length of Day
Tomorrow will be .
, % of the Moon is Illuminated

Today's Extremes

State Highs State Lows

Community

WunderPhotos

Upload Photos

1,844,098 photos uploaded!

WunderBlogs® & News

Nearby

Air Quality

  Air Quality AQ Index Pollutant
Not available.

Snow Depth

Station Depth Elevation

Earthquake Activity

City Distance Mag. Time & Date
Minimum magnitude displayed is 2.5.

Coastal Water Temperatures

Place Temperature

Stations

Nearby Weather Stations

Station Location Temp. Windchill Dew Point Humidity Wind Precip. Elev Updated Type